Ana Sayfa
METAR-TAF:

METAR-TAF

Havaalanları :

Midland, Teksas, Amerika Birleşik Devletleri

Enlem: 31-56-52N, Boylam: 102-12-31W, yükseklik: 875 m

Güncel hava durumu gözlemi

Rapor saat 15:53 UTC de 8 dakika önce yapıldı.
Rüzgar güneydan 13 kt
Sıcaklık 8°C
Nem 61%
Basınç 1024 hPa
Görüş mesafesi: 16.1 km
Açık gökyüzü

METAR: KMAF 221553Z 18013KT 10SM CLR 08/01 A3025 RMK AO2 SLP232 T00780006

Saat: 10:01 (16:01 UTC)

Tahmin

Rapor saat 11:30 UTC de 4 saat ve 31 dakika önce yapıldı.
Ayın 22'si saat 12 UTC'den ayın 23'si saat 12 UTC'ye kadar geçerli Tahmin
Rüzgar güneydan 11 kt
Görüş mesafesi: 10 km
25000 ft yükseklikte parçalı çok bulutlu

TAF: KMAF 221130Z 2212/2312 18011KT P6SM BKN250

4.000'den fazla havaalanı için hava durumu gözlemleri ve tahminleri (METAR ve TAF raporları).

Kullanılabilir istasyonlar harita üzerinde sarı ve kırmızı noktalarla gösterilir.

İstasyonun adını görmek için fareyi noktanın üzerinde gezdirin.

Sonrasında hava gözlem ve tahminlerini görmek için tıklayın.

Haritayı değiştirmek için: yaklaştırmak için siyah artı işaretli yeşil düğmeye ve uzaklaştırmak için de eksi işaretli düğmeye hızla tıklayın; bitişik haritalar için yeşil okları kullanın.


METAR-TAF: